createdAt,value
2023-03-01T00:00:23.647Z,100284.00
2023-03-01T00:01:23.625Z,100277.00
2023-03-01T00:02:23.690Z,100281.00
2023-03-01T00:03:23.729Z,100286.00
2023-03-01T00:04:23.638Z,100284.00
2023-03-01T00:05:23.659Z,100281.00
2023-03-01T00:06:23.682Z,100284.00
2023-03-01T00:07:23.675Z,100283.00
2023-03-01T00:08:23.705Z,100274.00
2023-03-01T00:09:23.694Z,100281.00
2023-03-01T00:10:23.740Z,100283.00
2023-03-01T00:11:23.761Z,100285.00
2023-03-01T00:12:23.743Z,100284.00
2023-03-01T00:13:23.756Z,100284.00
2023-03-01T00:14:23.782Z,100283.00
2023-03-01T00:15:23.806Z,100284.00
2023-03-01T00:16:23.845Z,100283.00
2023-03-01T00:17:23.827Z,100282.00
2023-03-01T00:18:23.852Z,100284.00
2023-03-01T00:19:23.898Z,100282.00
2023-03-01T00:20:23.869Z,100283.00
2023-03-01T00:21:23.915Z,100284.00
2023-03-01T00:22:23.910Z,100278.00
2023-03-01T00:23:23.939Z,100288.00
2023-03-01T00:24:23.973Z,100286.00
2023-03-01T00:25:23.943Z,100282.00
2023-03-01T00:26:23.988Z,100283.00
2023-03-01T00:27:23.960Z,100280.00
2023-03-01T00:28:23.984Z,100281.00
2023-03-01T00:29:24.013Z,100280.00
2023-03-01T00:30:23.999Z,100276.00
2023-03-01T00:31:24.021Z,100280.00
2023-03-01T00:32:24.025Z,100276.00
2023-03-01T00:33:24.010Z,100276.00
2023-03-01T00:34:24.062Z,100274.00
2023-03-01T00:35:24.162Z,100268.00
2023-03-01T00:36:24.038Z,100264.00
2023-03-01T00:37:24.058Z,100260.00
2023-03-01T00:38:24.076Z,100262.00
2023-03-01T00:39:24.112Z,100257.00
2023-03-01T00:40:24.130Z,100252.00
2023-03-01T00:41:24.147Z,100251.00
2023-03-01T00:42:24.181Z,100250.00
2023-03-01T00:43:24.150Z,100246.00
2023-03-01T00:44:24.170Z,100247.00
2023-03-01T00:45:24.148Z,100242.00
2023-03-01T00:46:24.175Z,100242.00
2023-03-01T00:47:24.198Z,100239.00
2023-03-01T00:48:24.177Z,100228.00
2023-03-01T00:49:24.210Z,100236.00
2023-03-01T00:50:24.231Z,100236.00
2023-03-01T00:51:24.257Z,100229.00
2023-03-01T00:52:24.242Z,100231.00
2023-03-01T00:53:24.243Z,100234.00
2023-03-01T00:54:24.271Z,100233.00
2023-03-01T00:55:24.248Z,100232.00
2023-03-01T00:56:24.269Z,100228.00
2023-03-01T00:57:24.285Z,100230.00
2023-03-01T00:58:24.336Z,100227.00
2023-03-01T00:59:24.317Z,100231.00
2023-03-01T01:00:24.333Z,100224.00
2023-03-01T01:01:24.408Z,100227.00
2023-03-01T01:02:24.403Z,100232.00
2023-03-01T01:03:24.391Z,100229.00
2023-03-01T01:04:24.373Z,100227.00
2023-03-01T01:05:24.388Z,100225.00
2023-03-01T01:06:24.416Z,100230.00
2023-03-01T01:07:24.395Z,100228.00
2023-03-01T01:08:24.425Z,100227.00
2023-03-01T01:09:24.443Z,100226.00
2023-03-01T01:10:24.469Z,100219.00
2023-03-01T01:11:24.484Z,100230.00
2023-03-01T01:12:24.498Z,100223.00
2023-03-01T01:13:24.539Z,100222.00
2023-03-01T01:14:24.544Z,100223.00
2023-03-01T01:15:24.523Z,100222.00
2023-03-01T01:16:24.544Z,100220.00
2023-03-01T01:17:24.561Z,100223.00
2023-03-01T01:18:24.590Z,100217.00
2023-03-01T01:19:24.604Z,100216.00
2023-03-01T01:20:24.625Z,100217.00
2023-03-01T01:21:24.647Z,100214.00
2023-03-01T01:22:24.666Z,100215.00
2023-03-01T01:23:24.698Z,100207.00
2023-03-01T01:24:24.721Z,100216.00
2023-03-01T01:25:24.736Z,100211.00
2023-03-01T01:26:24.726Z,100211.00
2023-03-01T01:27:24.763Z,100209.00
2023-03-01T01:28:24.741Z,100211.00
2023-03-01T01:29:24.771Z,100212.00
2023-03-01T01:30:24.780Z,100212.00
2023-03-01T01:31:24.955Z,100206.00
2023-03-01T01:32:26.964Z,100213.00
2023-03-01T01:33:24.773Z,100209.00
2023-03-01T01:34:24.771Z,100205.00
2023-03-01T01:35:24.812Z,100210.00
2023-03-01T01:36:24.775Z,100208.00
2023-03-01T01:37:24.789Z,100200.00
2023-03-01T01:38:24.822Z,100200.00
2023-03-01T01:39:24.881Z,100200.00
2023-03-01T01:40:24.855Z,100199.00
2023-03-01T01:41:24.989Z,100197.00
2023-03-01T01:42:24.923Z,100195.00
2023-03-01T01:43:24.932Z,100196.00
2023-03-01T01:44:24.945Z,100195.00
2023-03-01T01:45:24.970Z,100201.00
2023-03-01T01:46:25.135Z,100192.00
2023-03-01T01:47:25.021Z,100193.00
2023-03-01T01:48:24.999Z,100197.00
2023-03-01T01:49:25.049Z,100194.00
2023-03-01T01:50:25.031Z,100191.00
2023-03-01T01:51:25.038Z,100194.00
2023-03-01T01:52:25.071Z,100194.00
2023-03-01T01:53:25.100Z,100188.00
2023-03-01T01:54:25.117Z,100189.00
2023-03-01T01:55:25.162Z,100190.00
2023-03-01T01:56:25.130Z,100194.00
2023-03-01T01:57:25.156Z,100188.00
2023-03-01T01:58:25.175Z,100189.00
2023-03-01T01:59:25.205Z,100189.00
2023-03-01T02:00:25.191Z,100183.00
2023-03-01T02:01:25.207Z,100178.00
2023-03-01T02:02:25.346Z,100178.00
2023-03-01T02:03:25.400Z,100175.00
2023-03-01T02:04:25.264Z,100177.00
2023-03-01T02:05:25.241Z,100170.00
2023-03-01T02:06:25.255Z,100168.00
2023-03-01T02:07:25.290Z,100166.00
2023-03-01T02:08:25.269Z,100165.00
2023-03-01T02:09:25.289Z,100168.00
2023-03-01T02:10:25.317Z,100170.00
2023-03-01T02:11:25.337Z,100167.00
2023-03-01T02:12:25.366Z,100166.00
2023-03-01T02:13:25.378Z,100161.00
2023-03-01T02:14:25.405Z,100169.00
2023-03-01T02:15:25.444Z,100162.00
2023-03-01T02:16:25.493Z,100163.00
2023-03-01T02:17:25.440Z,100164.00
2023-03-01T02:18:25.482Z,100159.00
2023-03-01T02:19:25.463Z,100161.00
2023-03-01T02:20:25.486Z,100161.00
2023-03-01T02:21:25.499Z,100159.00
2023-03-01T02:22:25.597Z,100158.00
2023-03-01T02:23:25.547Z,100159.00
2023-03-01T02:24:25.526Z,100150.00
2023-03-01T02:25:25.555Z,100155.00
2023-03-01T02:26:25.584Z,100159.00
2023-03-01T02:27:25.627Z,100161.00
2023-03-01T02:28:25.629Z,100159.00
2023-03-01T02:29:25.634Z,100158.00
2023-03-01T02:30:25.651Z,100156.00
2023-03-01T02:31:25.757Z,100157.00
2023-03-01T02:32:25.689Z,100155.00
2023-03-01T02:33:25.663Z,100155.00
2023-03-01T02:34:25.702Z,100154.00
2023-03-01T02:35:25.732Z,100157.00
2023-03-01T02:36:25.683Z,100148.00
2023-03-01T02:37:25.751Z,100148.00
2023-03-01T02:38:25.713Z,100148.00
2023-03-01T02:39:25.727Z,100146.00
2023-03-01T02:40:25.772Z,100146.00
2023-03-01T02:41:25.748Z,100146.00
2023-03-01T02:42:27.253Z,100143.00
2023-03-01T02:43:25.732Z,100143.00
2023-03-01T02:44:25.754Z,100142.00
2023-03-01T02:45:25.779Z,100141.00
2023-03-01T02:46:25.905Z,100141.00
2023-03-01T02:47:25.813Z,100137.00
2023-03-01T02:48:25.835Z,100136.00
2023-03-01T02:49:25.862Z,100132.00
2023-03-01T02:50:25.911Z,100132.00
2023-03-01T02:51:25.875Z,100134.00
2023-03-01T02:52:25.913Z,100131.00
2023-03-01T02:53:25.924Z,100131.00
2023-03-01T02:54:25.952Z,100131.00
2023-03-01T02:55:26.001Z,100131.00
2023-03-01T02:56:25.989Z,100128.00
2023-03-01T02:57:26.005Z,100129.00
2023-03-01T02:58:26.009Z,100127.00
2023-03-01T02:59:26.041Z,100128.00
2023-03-01T03:00:26.312Z,100125.00
2023-03-01T03:01:26.030Z,100125.00
2023-03-01T03:02:26.052Z,100120.00
2023-03-01T03:03:26.117Z,100120.00
2023-03-01T03:04:26.079Z,100119.00
2023-03-01T03:05:26.129Z,100120.00
2023-03-01T03:06:26.130Z,100116.00
2023-03-01T03:07:26.098Z,100113.00
2023-03-01T03:08:26.152Z,100118.00
2023-03-01T03:09:26.108Z,100113.00
2023-03-01T03:10:26.131Z,100111.00
2023-03-01T03:11:26.113Z,100112.00
2023-03-01T03:12:26.136Z,100109.00
2023-03-01T03:13:26.150Z,100111.00
2023-03-01T03:14:26.175Z,100103.00
2023-03-01T03:15:26.211Z,100108.00
2023-03-01T03:16:26.275Z,100108.00
2023-03-01T03:17:26.262Z,100110.00
2023-03-01T03:18:26.288Z,100109.00
2023-03-01T03:19:26.266Z,100106.00
2023-03-01T03:20:26.313Z,100106.00
2023-03-01T03:21:26.282Z,100111.00
2023-03-01T03:22:26.339Z,100106.00
2023-03-01T03:23:26.314Z,100106.00
2023-03-01T03:24:26.336Z,100108.00
2023-03-01T03:25:26.368Z,100109.00
2023-03-01T03:26:26.357Z,100108.00
2023-03-01T03:27:26.381Z,100107.00
2023-03-01T03:28:26.396Z,100106.00
2023-03-01T03:29:26.416Z,100109.00
2023-03-01T03:30:26.442Z,100105.00
2023-03-01T03:31:26.532Z,100103.00
2023-03-01T03:32:26.544Z,100098.00
2023-03-01T03:33:26.494Z,100105.00
2023-03-01T03:34:26.507Z,100102.00
2023-03-01T03:35:26.519Z,100103.00
2023-03-01T03:36:26.540Z,100106.00
2023-03-01T03:37:26.524Z,100105.00
2023-03-01T03:38:26.575Z,100102.00
2023-03-01T03:39:26.549Z,100103.00
2023-03-01T03:40:26.566Z,100103.00
2023-03-01T03:41:26.596Z,100101.00
2023-03-01T03:42:26.610Z,100101.00
2023-03-01T03:43:26.632Z,100097.00
2023-03-01T03:44:26.616Z,100096.00
2023-03-01T03:45:26.700Z,100102.00
2023-03-01T03:46:26.636Z,100096.00
2023-03-01T03:47:26.666Z,100093.00
2023-03-01T03:48:26.681Z,100097.00
2023-03-01T03:49:26.725Z,100100.00
2023-03-01T03:50:26.695Z,100098.00
2023-03-01T03:51:26.726Z,100097.00
2023-03-01T03:52:26.742Z,100100.00
2023-03-01T03:53:26.789Z,100094.00
2023-03-01T03:54:26.785Z,100088.00
2023-03-01T03:55:26.753Z,100089.00
2023-03-01T03:56:28.622Z,100089.00
2023-03-01T03:57:26.767Z,100084.00
2023-03-01T03:58:26.805Z,100084.00
2023-03-01T03:59:26.780Z,100090.00
2023-03-01T04:00:26.804Z,100088.00
2023-03-01T04:01:26.878Z,100090.00
2023-03-01T04:02:26.865Z,100091.00
2023-03-01T04:03:26.833Z,100089.00
2023-03-01T04:04:26.847Z,100090.00
2023-03-01T04:05:26.860Z,100088.00
2023-03-01T04:06:26.892Z,100086.00
2023-03-01T04:07:26.866Z,100089.00
2023-03-01T04:08:26.886Z,100090.00
2023-03-01T04:09:26.900Z,100088.00
2023-03-01T04:10:26.939Z,100096.00
2023-03-01T04:11:26.930Z,100096.00
2023-03-01T04:12:26.930Z,100096.00
2023-03-01T04:13:26.955Z,100098.00
2023-03-01T04:14:26.981Z,100097.00
2023-03-01T04:15:26.996Z,100099.00
2023-03-01T04:16:27.122Z,100096.00
2023-03-01T04:17:27.044Z,100098.00
2023-03-01T04:18:27.077Z,100100.00
2023-03-01T04:19:27.045Z,100098.00
2023-03-01T04:20:27.058Z,100098.00
2023-03-01T04:21:27.079Z,100100.00
2023-03-01T04:22:27.095Z,100096.00
2023-03-01T04:23:27.121Z,100097.00
2023-03-01T04:24:27.105Z,100098.00
2023-03-01T04:25:27.117Z,100099.00
2023-03-01T04:26:27.183Z,100098.00
2023-03-01T04:27:27.163Z,100096.00
2023-03-01T04:28:27.181Z,100101.00
2023-03-01T04:29:27.198Z,100106.00
2023-03-01T04:30:27.221Z,100104.00
2023-03-01T04:31:27.287Z,100106.00
2023-03-01T04:32:27.355Z,100101.00
2023-03-01T04:33:27.254Z,100099.00
2023-03-01T04:34:27.285Z,100104.00
2023-03-01T04:35:27.482Z,100104.00
2023-03-01T04:36:27.579Z,100106.00
2023-03-01T04:37:27.347Z,100103.00
2023-03-01T04:38:27.367Z,100106.00
2023-03-01T04:39:27.409Z,100106.00
2023-03-01T04:40:27.388Z,100104.00
2023-03-01T04:41:27.417Z,100107.00
2023-03-01T04:42:27.425Z,100108.00
2023-03-01T04:43:27.409Z,100107.00
2023-03-01T04:44:27.416Z,100106.00
2023-03-01T04:45:27.447Z,100105.00
2023-03-01T04:46:27.483Z,100106.00
2023-03-01T04:47:27.459Z,100107.00
2023-03-01T04:48:27.463Z,100107.00
2023-03-01T04:49:27.479Z,100108.00
2023-03-01T04:50:27.496Z,100110.00
2023-03-01T04:51:27.522Z,100108.00
2023-03-01T04:52:27.548Z,100107.00
2023-03-01T04:53:27.555Z,100103.00
2023-03-01T04:54:27.580Z,100110.00
2023-03-01T04:55:27.602Z,100111.00
2023-03-01T04:56:27.621Z,100112.00
2023-03-01T04:57:27.651Z,100108.00
2023-03-01T04:58:27.685Z,100108.00
2023-03-01T04:59:27.664Z,100108.00
2023-03-01T05:00:27.678Z,100111.00
2023-03-01T05:01:27.700Z,100106.00
2023-03-01T05:02:27.767Z,100107.00
2023-03-01T05:03:27.754Z,100109.00
2023-03-01T05:04:27.834Z,100109.00
2023-03-01T05:05:27.794Z,100102.00
2023-03-01T05:06:27.815Z,100106.00
2023-03-01T05:07:27.838Z,100103.00
2023-03-01T05:08:27.919Z,100098.00
2023-03-01T05:09:27.846Z,100099.00
2023-03-01T05:10:27.863Z,100101.00
2023-03-01T05:11:27.875Z,100100.00
2023-03-01T05:12:27.901Z,100095.00
2023-03-01T05:13:27.917Z,100098.00
2023-03-01T05:14:27.958Z,100099.00
2023-03-01T05:15:27.929Z,100100.00
2023-03-01T05:16:28.318Z,100098.00
2023-03-01T05:17:27.974Z,100104.00
2023-03-01T05:18:27.994Z,100105.00
2023-03-01T05:19:28.005Z,100105.00
2023-03-01T05:20:28.042Z,100108.00
2023-03-01T05:21:28.018Z,100104.00
2023-03-01T05:22:28.046Z,100104.00
2023-03-01T05:23:28.068Z,100102.00
2023-03-01T05:24:28.102Z,100105.00
2023-03-01T05:25:28.179Z,100104.00
2023-03-01T05:26:28.932Z,100100.00
2023-03-01T05:27:28.155Z,100101.00
2023-03-01T05:28:28.187Z,100099.00
2023-03-01T05:29:28.185Z,100098.00
2023-03-01T05:30:28.233Z,100101.00
2023-03-01T05:31:28.273Z,100098.00
2023-03-01T05:32:28.229Z,100099.00
2023-03-01T05:33:28.257Z,100094.00
2023-03-01T05:34:28.278Z,100090.00
2023-03-01T05:35:28.319Z,100087.00
2023-03-01T05:36:28.359Z,100082.00
2023-03-01T05:37:28.315Z,100088.00
2023-03-01T05:38:28.318Z,100085.00
2023-03-01T05:39:28.348Z,100091.00
2023-03-01T05:40:28.373Z,100086.00
2023-03-01T05:41:28.414Z,100088.00
2023-03-01T05:42:28.430Z,100088.00
2023-03-01T05:43:28.450Z,100086.00
2023-03-01T05:44:28.468Z,100082.00
2023-03-01T05:45:28.508Z,100085.00
2023-03-01T05:46:29.006Z,100087.00
2023-03-01T05:47:28.551Z,100081.00
2023-03-01T05:48:28.522Z,100082.00
2023-03-01T05:49:28.535Z,100084.00
2023-03-01T05:50:28.578Z,100086.00
2023-03-01T05:51:28.558Z,100088.00
2023-03-01T05:52:28.538Z,100089.00
2023-03-01T05:53:28.561Z,100084.00
2023-03-01T05:54:28.592Z,100087.00
2023-03-01T05:55:29.252Z,100079.00
2023-03-01T05:56:28.924Z,100088.00
2023-03-01T05:57:28.629Z,100084.00
2023-03-01T05:58:28.668Z,100083.00
2023-03-01T05:59:28.646Z,100091.00
2023-03-01T06:01:54.596Z,100085.00
2023-03-01T06:02:54.610Z,100084.00
2023-03-01T06:03:54.651Z,100082.00
2023-03-01T06:04:54.811Z,100083.00
2023-03-01T06:05:54.673Z,100079.00
2023-03-01T06:06:54.689Z,100080.00
2023-03-01T06:07:54.712Z,100079.00
2023-03-01T06:08:54.739Z,100081.00
2023-03-01T06:09:54.731Z,100083.00
2023-03-01T06:10:54.729Z,100080.00
2023-03-01T06:11:54.785Z,100075.00
2023-03-01T06:12:54.774Z,100080.00
2023-03-01T06:13:54.789Z,100081.00
2023-03-01T06:14:54.801Z,100084.00
2023-03-01T06:15:54.800Z,100084.00
2023-03-01T06:16:54.810Z,100085.00
2023-03-01T06:17:54.823Z,100081.00
2023-03-01T06:18:54.800Z,100081.00
2023-03-01T06:19:54.817Z,100079.00
2023-03-01T06:20:54.834Z,100085.00
2023-03-01T06:21:54.835Z,100086.00
2023-03-01T06:22:54.822Z,100086.00
2023-03-01T06:23:54.810Z,100080.00
2023-03-01T06:24:54.836Z,100082.00
2023-03-01T06:25:54.881Z,100086.00
2023-03-01T06:26:54.907Z,100083.00
2023-03-01T06:27:54.918Z,100077.00
2023-03-01T06:28:54.894Z,100081.00
2023-03-01T06:29:54.884Z,100083.00
2023-03-01T06:30:54.918Z,100083.00
2023-03-01T06:31:54.909Z,100086.00
2023-03-01T06:32:54.892Z,100084.00
2023-03-01T06:33:54.958Z,100079.00
2023-03-01T06:34:54.934Z,100084.00
2023-03-01T06:35:54.961Z,100078.00
2023-03-01T06:36:54.926Z,100083.00
2023-03-01T06:37:54.912Z,100079.00
2023-03-01T06:38:54.936Z,100082.00
2023-03-01T06:39:54.946Z,100080.00
2023-03-01T06:40:54.945Z,100085.00
2023-03-01T06:41:55.141Z,100080.00
2023-03-01T06:42:54.949Z,100080.00
2023-03-01T06:43:54.934Z,100082.00
2023-03-01T06:44:54.958Z,100080.00
2023-03-01T06:45:55.005Z,100076.00
2023-03-01T06:46:55.089Z,100068.00
2023-03-01T06:47:55.006Z,100072.00
2023-03-01T06:48:54.993Z,100073.00
2023-03-01T06:49:55.040Z,100070.00
2023-03-01T06:50:55.073Z,100065.00
2023-03-01T06:51:55.042Z,100065.00
2023-03-01T06:52:55.044Z,100065.00
2023-03-01T06:53:55.061Z,100069.00
2023-03-01T06:54:55.093Z,100069.00
2023-03-01T06:55:55.090Z,100059.00
2023-03-01T06:56:55.080Z,100060.00
2023-03-01T06:57:55.127Z,100061.00
2023-03-01T06:58:55.096Z,100062.00
2023-03-01T06:59:55.128Z,100060.00
2023-03-01T07:00:55.113Z,100066.00
2023-03-01T07:01:55.172Z,100065.00
2023-03-01T07:02:55.177Z,100063.00
2023-03-01T07:03:55.156Z,100063.00
2023-03-01T07:04:55.197Z,100065.00
2023-03-01T07:05:55.208Z,100066.00
2023-03-01T07:06:55.192Z,100070.00
2023-03-01T07:07:55.216Z,100064.00
2023-03-01T07:08:55.240Z,100069.00
2023-03-01T07:09:55.302Z,100066.00
2023-03-01T07:10:55.288Z,100065.00
2023-03-01T07:11:55.320Z,100072.00
2023-03-01T07:12:55.356Z,100064.00
2023-03-01T07:13:55.387Z,100068.00
2023-03-01T07:14:55.414Z,100068.00
2023-03-01T07:15:55.482Z,100059.00
2023-03-01T07:16:55.404Z,100060.00
2023-03-01T07:17:55.441Z,100053.00
2023-03-01T07:18:55.486Z,100057.00
2023-03-01T07:19:55.492Z,100052.00
2023-03-01T07:20:55.470Z,100055.00
2023-03-01T07:21:55.542Z,100055.00
2023-03-01T07:22:55.535Z,100051.00
2023-03-01T07:23:55.566Z,100045.00
2023-03-01T07:24:55.550Z,100045.00
2023-03-01T07:25:55.556Z,100044.00
2023-03-01T07:26:55.539Z,100036.00
2023-03-01T07:27:55.574Z,100032.00
2023-03-01T07:28:55.623Z,100032.00
2023-03-01T07:29:55.610Z,100034.00
2023-03-01T07:30:55.660Z,100034.00
2023-03-01T07:31:55.681Z,100031.00
2023-03-01T07:32:55.955Z,100033.00
2023-03-01T07:33:55.656Z,100030.00
2023-03-01T07:34:55.683Z,100029.00
2023-03-01T07:35:55.809Z,100025.00
2023-03-01T07:36:55.734Z,100028.00
2023-03-01T07:37:55.841Z,100034.00
2023-03-01T07:38:55.772Z,100036.00
2023-03-01T07:39:55.800Z,100034.00
2023-03-01T07:40:55.830Z,100036.00
2023-03-01T07:41:55.852Z,100035.00
2023-03-01T07:42:55.923Z,100036.00
2023-03-01T07:43:55.915Z,100040.00
2023-03-01T07:44:55.904Z,100036.00
2023-03-01T07:45:56.020Z,100038.00
2023-03-01T07:46:55.970Z,100048.00
2023-03-01T07:47:55.963Z,100040.00
2023-03-01T07:48:55.990Z,100046.00
2023-03-01T07:49:56.020Z,100048.00
2023-03-01T07:50:56.056Z,100044.00
2023-03-01T07:51:56.107Z,100045.00
2023-03-01T07:52:56.093Z,100050.00
2023-03-01T07:53:56.176Z,100043.00
2023-03-01T07:54:56.105Z,100046.00
2023-03-01T07:55:56.149Z,100047.00
2023-03-01T07:56:56.142Z,100043.00
2023-03-01T07:57:56.162Z,100038.00
2023-03-01T07:58:56.154Z,100037.00
2023-03-01T07:59:56.137Z,100041.00
2023-03-01T08:00:56.161Z,100035.00
2023-03-01T08:01:56.480Z,100032.00
2023-03-01T08:02:56.201Z,100034.00
2023-03-01T08:03:56.244Z,100032.00
2023-03-01T08:04:56.247Z,100033.00
2023-03-01T08:05:56.281Z,100034.00
2023-03-01T08:06:56.284Z,100027.00
2023-03-01T08:07:56.290Z,100034.00
2023-03-01T08:08:56.275Z,100036.00
2023-03-01T08:09:56.292Z,100029.00
2023-03-01T08:10:56.279Z,100029.00
2023-03-01T08:11:56.307Z,100030.00
2023-03-01T08:12:56.258Z,100024.00
2023-03-01T08:13:56.283Z,100029.00
2023-03-01T08:14:56.264Z,100026.00
2023-03-01T08:15:56.260Z,100025.00
2023-03-01T08:16:56.398Z,100025.00
2023-03-01T08:17:56.333Z,100023.00
2023-03-01T08:18:56.314Z,100030.00
2023-03-01T08:19:56.388Z,100033.00
2023-03-01T08:20:56.374Z,100025.00
2023-03-01T08:21:56.361Z,100026.00
2023-03-01T08:22:56.367Z,100026.00
2023-03-01T08:23:56.345Z,100025.00
2023-03-01T08:24:56.333Z,100026.00
2023-03-01T08:25:56.348Z,100030.00
2023-03-01T08:26:56.328Z,100027.00
2023-03-01T08:27:56.373Z,100025.00
2023-03-01T08:28:56.364Z,100025.00
2023-03-01T08:29:56.356Z,100026.00
2023-03-01T08:30:56.351Z,100027.00
2023-03-01T08:31:56.459Z,100027.00
2023-03-01T08:32:56.511Z,100024.00
2023-03-01T08:33:56.558Z,100023.00
2023-03-01T08:34:56.352Z,100023.00
2023-03-01T08:35:56.461Z,100021.00
2023-03-01T08:36:56.422Z,100022.00
2023-03-01T08:37:56.427Z,100025.00
2023-03-01T08:38:56.425Z,100028.00
2023-03-01T08:39:56.489Z,100022.00
2023-03-01T08:40:56.416Z,100024.00
2023-03-01T08:41:56.539Z,100020.00
2023-03-01T08:42:56.408Z,100015.00
2023-03-01T08:43:56.403Z,100016.00
2023-03-01T08:44:56.406Z,100015.00
2023-03-01T08:45:56.466Z,100018.00
2023-03-01T08:46:56.420Z,100017.00
2023-03-01T08:47:56.454Z,100015.00
2023-03-01T08:48:56.489Z,100014.00
2023-03-01T08:49:56.472Z,100012.00
2023-03-01T08:50:56.495Z,100014.00
2023-03-01T08:51:56.569Z,100009.00
2023-03-01T08:52:56.548Z,100005.00
2023-03-01T08:53:56.611Z,100006.00
2023-03-01T08:54:56.591Z,100006.00
2023-03-01T08:55:56.583Z,100007.00
2023-03-01T08:56:56.579Z,100003.00
2023-03-01T08:57:56.597Z,100003.00
2023-03-01T08:58:56.565Z,100002.00
2023-03-01T08:59:57.231Z,99995.00
2023-03-01T09:00:56.570Z,99992.00
2023-03-01T09:01:56.599Z,99991.00
2023-03-01T09:02:56.598Z,99989.00
2023-03-01T09:03:56.735Z,99987.00
2023-03-01T09:04:56.624Z,99990.00
2023-03-01T09:05:56.662Z,99990.00
2023-03-01T09:06:56.675Z,99990.00
2023-03-01T09:07:56.735Z,99987.00
2023-03-01T09:08:56.671Z,99982.00
2023-03-01T09:09:56.664Z,99985.00
2023-03-01T09:10:56.660Z,99985.00
2023-03-01T09:11:56.658Z,99985.00
2023-03-01T09:12:56.644Z,99987.00
2023-03-01T09:13:56.728Z,99982.00
2023-03-01T09:14:56.682Z,99979.00
2023-03-01T09:15:56.672Z,99979.00
2023-03-01T09:16:56.726Z,99980.00
2023-03-01T09:17:56.697Z,99979.00
2023-03-01T09:18:56.691Z,99975.00
2023-03-01T09:19:56.680Z,99975.00
2023-03-01T09:20:56.663Z,99976.00
2023-03-01T09:21:56.700Z,99981.00
2023-03-01T09:22:56.730Z,99981.00
2023-03-01T09:23:56.745Z,99977.00
2023-03-01T09:24:56.730Z,99976.00
2023-03-01T09:25:56.762Z,99977.00
2023-03-01T09:26:56.751Z,99981.00
2023-03-01T09:27:56.778Z,99982.00
2023-03-01T09:28:56.774Z,99978.00
2023-03-01T09:29:56.845Z,99973.00
2023-03-01T09:30:56.817Z,99979.00
2023-03-01T09:31:56.858Z,99975.00
2023-03-01T09:32:56.820Z,99982.00
2023-03-01T09:33:56.824Z,99976.00
2023-03-01T09:34:56.833Z,99971.00
2023-03-01T09:35:56.883Z,99965.00
2023-03-01T09:36:56.814Z,99970.00
2023-03-01T09:37:56.842Z,99975.00
2023-03-01T09:38:56.829Z,99967.00
2023-03-01T09:39:56.828Z,99970.00
2023-03-01T09:40:56.816Z,99968.00
2023-03-01T09:41:56.865Z,99969.00
2023-03-01T09:42:56.856Z,99963.00
2023-03-01T09:43:56.897Z,99961.00
2023-03-01T09:44:56.880Z,99962.00
2023-03-01T09:45:57.004Z,99961.00
2023-03-01T09:46:56.904Z,99961.00
2023-03-01T09:47:56.930Z,99966.00
2023-03-01T09:48:56.978Z,99958.00
2023-03-01T09:49:56.964Z,99963.00
2023-03-01T09:50:56.952Z,99959.00
2023-03-01T09:51:56.945Z,99971.00
2023-03-01T09:52:56.934Z,99963.00
2023-03-01T09:53:56.965Z,99955.00
2023-03-01T09:54:59.477Z,99956.00
2023-03-01T09:55:57.024Z,99953.00
2023-03-01T09:56:57.011Z,99953.00
2023-03-01T09:57:57.036Z,99953.00
2023-03-01T09:58:57.026Z,99954.00
2023-03-01T09:59:57.009Z,99953.00
2023-03-01T10:00:57.072Z,99944.00
2023-03-01T10:01:57.090Z,99940.00
2023-03-01T10:02:57.080Z,99940.00
2023-03-01T10:03:57.163Z,99943.00
2023-03-01T10:04:57.151Z,99943.00
2023-03-01T10:05:57.109Z,99939.00
2023-03-01T10:06:57.144Z,99947.00
2023-03-01T10:07:57.139Z,99939.00
2023-03-01T10:08:57.129Z,99945.00
2023-03-01T10:09:57.117Z,99941.00
2023-03-01T10:10:57.105Z,99941.00
2023-03-01T10:11:57.105Z,99937.00
2023-03-01T10:12:57.199Z,99936.00
2023-03-01T10:13:57.135Z,99937.00
2023-03-01T10:14:57.125Z,99937.00
2023-03-01T10:15:57.306Z,99936.00
2023-03-01T10:16:57.191Z,99941.00
2023-03-01T10:17:57.205Z,99938.00
2023-03-01T10:18:57.220Z,99937.00
2023-03-01T10:19:57.209Z,99935.00
2023-03-01T10:20:57.242Z,99935.00
2023-03-01T10:21:57.231Z,99936.00
2023-03-01T10:22:57.268Z,99932.00
2023-03-01T10:23:57.258Z,99928.00
2023-03-01T10:24:57.282Z,99925.00
2023-03-01T10:25:57.289Z,99930.00
2023-03-01T10:26:57.297Z,99927.00
2023-03-01T10:27:57.305Z,99925.00
2023-03-01T10:28:57.310Z,99925.00
2023-03-01T10:29:57.328Z,99922.00
2023-03-01T10:30:57.395Z,99927.00
2023-03-01T10:31:57.429Z,99923.00
2023-03-01T10:32:57.296Z,99923.00
2023-03-01T10:33:57.370Z,99926.00
2023-03-01T10:34:57.349Z,99927.00
2023-03-01T10:35:57.448Z,99924.00
2023-03-01T10:36:57.405Z,99932.00
2023-03-01T10:37:57.434Z,99931.00
2023-03-01T10:38:57.450Z,99930.00
2023-03-01T10:39:57.486Z,99924.00
2023-03-01T10:40:57.538Z,99925.00
2023-03-01T10:41:57.516Z,99931.00
2023-03-01T10:42:57.518Z,99921.00
2023-03-01T10:43:57.505Z,99925.00
2023-03-01T10:44:57.509Z,99922.00
2023-03-01T10:45:57.523Z,99927.00
2023-03-01T10:46:57.483Z,99925.00
2023-03-01T10:47:57.472Z,99917.00
2023-03-01T10:48:57.504Z,99914.00
2023-03-01T10:49:57.542Z,99914.00
2023-03-01T10:50:57.527Z,99911.00
2023-03-01T10:51:57.550Z,99907.00
2023-03-01T10:52:57.610Z,99903.00
2023-03-01T10:53:57.613Z,99903.00
2023-03-01T10:54:57.593Z,99903.00
2023-03-01T10:55:57.617Z,99902.00
2023-03-01T10:56:57.615Z,99897.00
2023-03-01T10:57:57.596Z,99893.00
2023-03-01T10:58:57.592Z,99893.00
2023-03-01T10:59:57.581Z,99891.00
2023-03-01T11:00:57.582Z,99889.00
2023-03-01T11:01:57.587Z,99893.00
2023-03-01T11:02:57.555Z,99888.00
2023-03-01T11:03:57.588Z,99886.00
2023-03-01T11:04:57.600Z,99885.00
2023-03-01T11:05:57.610Z,99883.00
2023-03-01T11:06:57.594Z,99881.00
2023-03-01T11:07:57.618Z,99881.00
2023-03-01T11:08:57.632Z,99876.00
2023-03-01T11:09:57.613Z,99876.00
2023-03-01T11:10:57.600Z,99874.00
2023-03-01T11:11:57.601Z,99879.00
2023-03-01T11:12:57.642Z,99866.00
2023-03-01T11:13:57.701Z,99866.00
2023-03-01T11:14:57.625Z,99861.00
2023-03-01T11:15:57.675Z,99862.00
2023-03-01T11:16:57.642Z,99861.00
2023-03-01T11:18:08.997Z,99855.00
2023-03-01T11:18:57.648Z,99855.00
2023-03-01T11:20:02.527Z,99852.00
2023-03-01T11:20:57.680Z,99850.00
2023-03-01T11:21:57.754Z,99851.00
2023-03-01T11:22:57.679Z,99849.00
2023-03-01T11:23:57.692Z,99853.00
2023-03-01T11:25:09.581Z,99850.00
2023-03-01T11:25:57.727Z,99852.00
2023-03-01T11:26:57.733Z,99853.00
2023-03-01T11:27:57.735Z,99853.00
2023-03-01T11:28:57.769Z,99856.00
2023-03-01T11:29:57.770Z,99857.00